Time;durP1;ratioP1;P1;durP2;ratioP2;P2;SDS_P1;SDS_P2;PMS_P1;PMS_P2;Temp;Humidity;BMP_temperature;BMP_pressure;BME280_temperature;BME280_humidity;BME280_pressure;Samples;Min_cycle;Max_cycle;Signal;HPM_P1;HPM_P2
2023/06/10 00:00:14;;;;;;;;;;;;;;;-141.59;100.00;61776.25;5031253;28;19925;-72
2023/06/10 00:02:43;;;;;;;;;;;;;;;-141.59;100.00;61776.25;5023486;28;19929;-73
2023/06/10 00:05:13;;;;;;;;;;;;;;;-141.59;100.00;61776.25;5022905;28;19929;-71
2023/06/10 00:07:40;;;;;;;;;;;;;;;-141.59;100.00;61776.25;5026625;28;19929;-72
2023/06/10 00:10:08;;;;;;;;;;;;;;;-141.59;100.00;61776.25;5018754;28;19978;-72
2023/06/10 00:12:37;;;;;;;;;;;;;;;-141.59;100.00;61776.25;5057887;28;19960;-73
2023/06/10 00:15:05;;;;;;;;;;;;;;;-141.59;100.00;61776.25;5049616;28;19924;-72
2023/06/10 00:17:32;;;;;;;;;;;;;;;-141.59;100.00;61776.25;5047230;28;19924;-72
2023/06/10 00:19:59;;;;;;;;;;;;;;;-141.59;100.00;61776.25;5043878;28;19979;-72
2023/06/10 00:22:29;;;;;;;;;;;;;;;-141.59;100.00;61776.25;5029505;28;19998;-73
2023/06/10 00:24:56;;;;;;;;;;;;;;;-141.59;100.00;61776.25;5019877;28;19938;-72
2023/06/10 00:27:23;;;;;;;;;;;;;;;-141.59;100.00;61776.25;5046284;28;19986;-73
2023/06/10 00:29:50;;;;;;;;;;;;;;;-141.59;100.00;61776.25;5040692;28;19932;-73
2023/06/10 00:32:16;;;;;;;;;;;;;;;-141.59;100.00;61776.25;5030933;28;19929;-73
2023/06/10 00:34:43;;;;;;;;;;;;;;;-141.59;100.00;61776.25;5027594;28;19925;-71
2023/06/10 00:37:10;;;;;;;;;;;;;;;-141.59;100.00;61776.25;5028984;28;19931;-74
2023/06/10 00:39:38;;;;;;;;;;;;;;;-141.59;100.00;61776.25;5030308;28;19935;-72
2023/06/10 00:42:07;;;;;;;;;;;;;;;-141.59;100.00;61776.25;5023719;28;20094;-72
2023/06/10 00:44:33;;;;;;;;;;;;;;;-141.59;100.00;61776.25;5029419;28;19925;-73
2023/06/10 00:47:00;;;;;;;;;;;;;;;-141.59;100.00;61776.25;5025991;28;20131;-72
2023/06/10 00:49:28;;;;;;;;;;;;;;;-141.59;100.00;61776.25;5016461;28;19935;-72
2023/06/10 00:51:55;;;;;;;;;;;;;;;-141.59;100.00;61776.25;5027884;28;19925;-73
2023/06/10 00:54:22;;;;;;;;;;;;;;;-141.59;100.00;61776.25;5032324;28;19924;-72
2023/06/10 00:56:51;;;;;;;;;;;;;;;-141.59;100.00;61776.25;5027948;28;19925;-72
2023/06/10 00:59:18;;;;;;;;;;;;;;;-141.59;100.00;61776.25;5027985;28;19925;-72
2023/06/10 01:01:47;;;;;;;;;;;;;;;-141.59;100.00;61776.25;5024933;28;19925;-73
2023/06/10 01:04:14;;;;;;;;;;;;;;;-141.59;100.00;61776.25;5029258;28;20008;-73
2023/06/10 01:06:49;;;;;;;;;;;;;;;-141.59;100.00;61776.25;5015344;28;19929;-72
2023/06/10 01:09:19;;;;;;;;;;;;;;;-141.59;100.00;61776.25;5024589;28;20062;-73
2023/06/10 01:11:50;;;;;;;;;;;;;;;-141.59;100.00;61776.25;5025665;28;19925;-73
2023/06/10 01:14:20;;;;;;;;;;;;;;;-141.59;100.00;61776.25;5026849;28;19925;-72
2023/06/10 01:16:48;;;;;;;;;;;;;;;-141.59;100.00;61776.25;5032004;28;19925;-73
2023/06/10 01:19:17;;;;;;;;;;;;;;;-141.59;100.00;61776.25;5017766;28;20056;-73
2023/06/10 01:21:48;;;;;;;;;;;;;;;-141.59;100.00;61776.25;5027412;28;19925;-73
2023/06/10 01:24:18;;;;;;;;;;;;;;;-141.59;100.00;61776.25;5046903;28;20015;-72
2023/06/10 01:26:46;;;;;;;;;;;;;;;-141.59;100.00;61776.25;5029430;28;20026;-73
2023/06/10 01:29:18;;;;;;;;;;;;;;;-141.59;100.00;61776.25;5028712;28;19925;-72
2023/06/10 01:31:49;;;;;;;;;;;;;;;-141.59;100.00;61776.25;5024037;28;19931;-73
2023/06/10 01:34:18;;;;;;;;;;;;;;;-141.59;100.00;61776.25;5017811;28;19925;-73
2023/06/10 01:36:48;;;;;;;;;;;;;;;-141.59;100.00;61776.25;5029926;28;20040;-73
2023/06/10 01:39:17;;;;;;;;;;;;;;;-141.59;100.00;61776.25;5022764;28;19925;-72
2023/06/10 01:41:44;;;;;;;;;;;;;;;-141.59;100.00;61776.25;5024417;28;19925;-73
2023/06/10 01:44:11;;;;;;;;;;;;;;;-141.59;100.00;61776.25;5022841;28;19937;-72
2023/06/10 01:46:40;;;;;;;;;;;;;;;-141.59;100.00;61776.25;5010958;28;19925;-72
2023/06/10 01:49:07;;;;;;;;;;;;;;;-141.59;100.00;61776.25;5024007;28;19968;-73
2023/06/10 01:51:34;;;;;;;;;;;;;;;-141.59;100.00;61776.25;5021399;28;19925;-73
2023/06/10 01:54:02;;;;;;;;;;;;;;;-141.59;100.00;61776.25;5022833;28;19932;-73
2023/06/10 01:56:29;;;;;;;;;;;;;;;-141.59;100.00;61776.25;5026270;28;19933;-73
2023/06/10 01:58:59;;;;;;;;;;;;;;;-141.59;100.00;61776.25;5017474;28;19996;-72
2023/06/10 02:01:25;;;;;;;;;;;;;;;-141.59;100.00;61776.25;5026117;28;19968;-72
2023/06/10 02:03:53;;;;;;;;;;;;;;;-141.59;100.00;61776.25;5029777;28;19933;-73
2023/06/10 02:06:20;;;;;;;;;;;;;;;-141.59;100.00;61776.25;5031027;28;19936;-72
2023/06/10 02:08:47;;;;;;;;;;;;;;;-141.59;100.00;61776.25;5024772;28;19961;-73
2023/06/10 02:11:15;;;;;;;;;;;;;;;-141.59;100.00;61776.25;5025493;28;19925;-72
2023/06/10 02:13:41;;;;;;;;;;;;;;;-141.59;100.00;61776.25;5025645;28;19964;-72
2023/06/10 02:16:09;;;;;;;;;;;;;;;-141.59;100.00;61776.25;5024127;28;19955;-73
2023/06/10 02:18:36;;;;;;;;;;;;;;;-141.59;100.00;61776.25;5021284;28;19925;-73
2023/06/10 02:21:02;;;;;;;;;;;;;;;-141.59;100.00;61776.25;5027125;28;20145;-74
2023/06/10 02:23:29;;;;;;;;;;;;;;;-141.59;100.00;61776.25;5025259;28;19936;-73
2023/06/10 02:25:56;;;;;;;;;;;;;;;-141.59;100.00;61776.25;5027572;28;19928;-72
2023/06/10 02:28:26;;;;;;;;;;;;;;;-141.59;100.00;61776.25;5012145;28;19933;-74
2023/06/10 02:30:53;;;;;;;;;;;;;;;-141.59;100.00;61776.25;5017335;28;20245;-73
2023/06/10 02:33:21;;;;;;;;;;;;;;;-141.59;100.00;61776.25;5037486;28;19940;-72
2023/06/10 02:35:48;;;;;;;;;;;;;;;-141.59;100.00;61776.25;5023504;28;19979;-74
2023/06/10 02:38:17;;;;;;;;;;;;;;;-141.59;100.00;61776.25;5029685;28;19925;-72
2023/06/10 02:40:43;;;;;;;;;;;;;;;-141.59;100.00;61776.25;5027800;28;19925;-72
2023/06/10 02:43:12;;;;;;;;;;;;;;;-141.59;100.00;61776.25;5012675;28;19925;-73
2023/06/10 02:45:40;;;;;;;;;;;;;;;-141.59;100.00;61776.25;5013097;28;19925;-73
2023/06/10 02:48:08;;;;;;;;;;;;;;;-141.59;100.00;61776.25;5028801;28;19948;-72
2023/06/10 02:50:35;;;;;;;;;;;;;;;-141.59;100.00;61776.25;5023746;28;19925;-72
2023/06/10 02:53:18;;;;;;;;;;;;;;;-141.59;100.00;61776.25;5020217;28;19933;-72
2023/06/10 02:55:50;;;;;;;;;;;;;;;-141.59;100.00;61776.25;5025912;28;19932;-73
2023/06/10 02:58:19;;;;;;;;;;;;;;;-141.59;100.00;61776.25;5042326;28;19925;-74
2023/06/10 03:00:48;;;;;;;;;;;;;;;-141.59;100.00;61776.25;5030797;28;19979;-73
2023/06/10 03:03:16;;;;;;;;;;;;;;;-141.59;100.00;61776.25;5028120;28;19925;-73
2023/06/10 03:05:56;;;;;;;;;;;;;;;-141.59;100.00;61776.25;5027321;28;19965;-73
2023/06/10 03:08:25;;;;;;;;;;;;;;;-141.59;100.00;61776.25;5020911;28;19929;-72
2023/06/10 03:10:52;;;;;;;;;;;;;;;-141.59;100.00;61776.25;5024059;28;19925;-74
2023/06/10 03:13:20;;;;;;;;;;;;;;;-141.59;100.00;61776.25;5045792;28;19928;-73
2023/06/10 03:15:49;;;;;;;;;;;;;;;-141.59;100.00;61776.25;5019705;28;19975;-72
2023/06/10 03:18:19;;;;;;;;;;;;;;;-141.59;100.00;61776.25;5040275;28;19925;-73
2023/06/10 03:20:48;;;;;;;;;;;;;;;-141.59;100.00;61776.25;5030934;28;19933;-73
2023/06/10 03:23:15;;;;;;;;;;;;;;;-141.59;100.00;61776.25;5025154;28;19926;-74
2023/06/10 03:25:43;;;;;;;;;;;;;;;-141.59;100.00;61776.25;5027867;28;19925;-72
2023/06/10 03:28:13;;;;;;;;;;;;;;;-141.59;100.00;61776.25;5027392;28;19926;-72
2023/06/10 03:30:41;;;;;;;;;;;;;;;-141.59;100.00;61776.25;5034828;28;19932;-72
2023/06/10 03:33:09;;;;;;;;;;;;;;;-141.59;100.00;61776.25;5027684;28;19925;-74
2023/06/10 03:35:37;;;;;;;;;;;;;;;-141.59;100.00;61776.25;5027789;28;20020;-73
2023/06/10 03:38:06;;;;;;;;;;;;;;;-141.59;100.00;61776.25;5025376;28;19968;-72
2023/06/10 03:40:33;;;;;;;;;;;;;;;-141.59;100.00;61776.25;5027939;28;19960;-72
2023/06/10 03:43:00;;;;;;;;;;;;;;;-141.59;100.00;61776.25;5029359;28;19925;-72
2023/06/10 03:45:28;;;;;;;;;;;;;;;-141.59;100.00;61776.25;5035108;28;19932;-73
2023/06/10 03:47:55;;;;;;;;;;;;;;;-141.59;100.00;61776.25;5032865;28;20060;-72
2023/06/10 03:50:28;;;;;;;;;;;;;;;-141.59;100.00;61776.25;5023923;28;19929;-73
2023/06/10 03:52:55;;;;;;;;;;;;;;;-141.59;100.00;61776.25;5025008;28;19977;-73
2023/06/10 03:55:25;;;;;;;;;;;;;;;-141.59;100.00;61776.25;5026192;28;19932;-73
2023/06/10 03:57:51;;;;;;;;;;;;;;;-141.59;100.00;61776.25;5024342;28;19925;-72
2023/06/10 04:00:21;;;;;;;;;;;;;;;-141.59;100.00;61776.25;5028529;28;19951;-74
2023/06/10 04:02:49;;;;;;;;;;;;;;;-141.59;100.00;61776.25;5028949;28;19979;-76
2023/06/10 04:05:30;;;;;;;;;;;;;;;-141.59;100.00;61776.25;5020534;28;19925;-73
2023/06/10 04:07:59;;;;;;;;;;;;;;;-141.59;100.00;61776.25;5025731;28;19997;-72
2023/06/10 04:10:26;;;;;;;;;;;;;;;-141.59;100.00;61776.25;5036291;28;19933;-73
2023/06/10 04:12:54;;;;;;;;;;;;;;;-141.59;100.00;61776.25;5046522;28;20027;-73
2023/06/10 04:15:21;;;;;;;;;;;;;;;-141.59;100.00;61776.25;5029617;28;19936;-73
2023/06/10 04:17:50;;;;;;;;;;;;;;;-141.59;100.00;61776.25;5024066;28;20010;-74
2023/06/10 04:20:18;;;;;;;;;;;;;;;-141.59;100.00;61776.25;5016341;28;19924;-73
2023/06/10 04:22:49;;;;;;;;;;;;;;;-141.59;100.00;61776.25;5044010;28;19925;-73
2023/06/10 04:25:16;;;;;;;;;;;;;;;-141.59;100.00;61776.25;5025766;28;19940;-73
2023/06/10 04:27:44;;;;;;;;;;;;;;;-141.59;100.00;61776.25;5031219;28;19936;-73
2023/06/10 04:30:11;;;;;;;;;;;;;;;-141.59;100.00;61776.25;5018342;28;19968;-73
2023/06/10 04:32:39;;;;;;;;;;;;;;;-141.59;100.00;61776.25;5025032;28;19999;-73
2023/06/10 04:35:12;;;;;;;;;;;;;;;-141.59;100.00;61776.25;5016548;28;19947;-73
2023/06/10 04:37:39;;;;;;;;;;;;;;;-141.59;100.00;61776.25;5030751;28;19925;-75
2023/06/10 04:40:10;;;;;;;;;;;;;;;-141.59;100.00;61776.25;5043617;28;19967;-73
2023/06/10 04:42:38;;;;;;;;;;;;;;;-141.59;100.00;61776.25;5045575;28;19924;-74
2023/06/10 04:45:05;;;;;;;;;;;;;;;-141.59;100.00;61776.25;5025561;28;19935;-73
2023/06/10 04:47:33;;;;;;;;;;;;;;;-141.59;100.00;61776.25;5032694;28;19929;-74
2023/06/10 04:50:00;;;;;;;;;;;;;;;-141.59;100.00;61776.25;5021414;28;19931;-73
2023/06/10 04:52:27;;;;;;;;;;;;;;;-141.59;100.00;61776.25;5044981;28;20012;-74
2023/06/10 04:54:54;;;;;;;;;;;;;;;-141.59;100.00;61776.25;5024108;28;19925;-74
2023/06/10 04:57:22;;;;;;;;;;;;;;;-141.59;100.00;61776.25;5044332;28;20016;-74
2023/06/10 04:59:49;;;;;;;;;;;;;;;-141.59;100.00;61776.25;5047317;28;19948;-73
2023/06/10 05:02:16;;;;;;;;;;;;;;;-141.59;100.00;61776.25;5034908;28;19925;-73
2023/06/10 05:04:43;;;;;;;;;;;;;;;-141.59;100.00;61776.25;5026168;28;19929;-72
2023/06/10 05:07:10;;;;;;;;;;;;;;;-141.59;100.00;61776.25;5040060;28;19956;-73
2023/06/10 05:09:36;;;;;;;;;;;;;;;-141.59;100.00;61776.25;5029783;28;19925;-73
2023/06/10 05:12:04;;;;;;;;;;;;;;;-141.59;100.00;61776.25;5029284;28;19961;-73
2023/06/10 05:14:32;;;;;;;;;;;;;;;-141.59;100.00;61776.25;5026588;28;19929;-73
2023/06/10 05:16:59;;;;;;;;;;;;;;;-141.59;100.00;61776.25;5028327;28;20001;-73
2023/06/10 05:19:27;;;;;;;;;;;;;;;-141.59;100.00;61776.25;5028749;28;19936;-76
2023/06/10 05:21:54;;;;;;;;;;;;;;;-141.59;100.00;61776.25;5034020;28;19933;-76
2023/06/10 05:24:21;;;;;;;;;;;;;;;-141.59;100.00;61776.25;5024203;28;19926;-72
2023/06/10 05:26:48;;;;;;;;;;;;;;;-141.59;100.00;61776.25;5028613;28;19960;-73
2023/06/10 05:29:16;;;;;;;;;;;;;;;-141.59;100.00;61776.25;5030031;28;20012;-73
2023/06/10 05:31:44;;;;;;;;;;;;;;;-141.59;100.00;61776.25;5026870;28;19933;-73
2023/06/10 05:34:10;;;;;;;;;;;;;;;-141.59;100.00;61776.25;5023496;28;19932;-73
2023/06/10 05:36:37;;;;;;;;;;;;;;;-141.59;100.00;61776.25;5024247;28;19956;-72
2023/06/10 05:39:04;;;;;;;;;;;;;;;-141.59;100.00;61776.25;5017549;28;19925;-73
2023/06/10 05:41:31;;;;;;;;;;;;;;;-141.59;100.00;61776.25;5024170;28;20011;-72
2023/06/10 05:43:58;;;;;;;;;;;;;;;-141.59;100.00;61776.25;5023349;28;19948;-73
2023/06/10 05:46:25;;;;;;;;;;;;;;;-141.59;100.00;61776.25;5022275;28;19925;-73
2023/06/10 05:48:54;;;;;;;;;;;;;;;-141.59;100.00;61776.25;5026692;28;19925;-74
2023/06/10 05:51:21;;;;;;;;;;;;;;;-141.59;100.00;61776.25;5022451;28;19940;-73
2023/06/10 05:53:48;;;;;;;;;;;;;;;-141.59;100.00;61776.25;5022751;28;19940;-73
2023/06/10 05:56:14;;;;;;;;;;;;;;;-141.59;100.00;61776.25;5015695;28;19968;-74
2023/06/10 05:58:41;;;;;;;;;;;;;;;-141.59;100.00;61776.25;5016376;28;19933;-73
2023/06/10 06:01:08;;;;;;;;;;;;;;;-141.59;100.00;61776.25;5038820;28;19945;-72
2023/06/10 06:03:35;;;;;;;;;;;;;;;-141.59;100.00;61776.25;5017000;28;19940;-72
2023/06/10 06:06:03;;;;;;;;;;;;;;;-141.59;100.00;61776.25;5017255;28;19932;-72
2023/06/10 06:08:30;;;;;;;;;;;;;;;-141.59;100.00;61776.25;5027891;28;19925;-73
2023/06/10 06:10:58;;;;;;;;;;;;;;;-141.59;100.00;61776.25;5022022;28;19947;-73
2023/06/10 06:13:25;;;;;;;;;;;;;;;-141.59;100.00;61776.25;5015119;28;19965;-73
2023/06/10 06:15:52;;;;;;;;;;;;;;;-141.59;100.00;61776.25;5032336;28;20032;-73
2023/06/10 06:18:19;;;;;;;;;;;;;;;-141.59;100.00;61776.25;5021477;28;19925;-73
2023/06/10 06:20:46;;;;;;;;;;;;;;;-141.59;100.00;61776.25;5021042;28;19933;-73
2023/06/10 06:23:15;;;;;;;;;;;;;;;-141.59;100.00;61776.25;5037169;28;19925;-72
2023/06/10 06:25:41;;;;;;;;;;;;;;;-141.59;100.00;61776.25;5043404;28;19990;-72
2023/06/10 06:28:09;;;;;;;;;;;;;;;-141.59;100.00;61776.25;5027006;28;19933;-75
2023/06/10 06:30:37;;;;;;;;;;;;;;;-141.59;100.00;61776.25;5036621;28;20108;-73
2023/06/10 06:33:04;;;;;;;;;;;;;;;-141.59;100.00;61776.25;5018388;28;19934;-73
2023/06/10 06:35:31;;;;;;;;;;;;;;;-141.59;100.00;61776.25;5028700;28;19936;-74
2023/06/10 06:37:58;;;;;;;;;;;;;;;-141.59;100.00;61776.25;5021581;28;19932;-73
2023/06/10 06:40:29;;;;;;;;;;;;;;;-141.59;100.00;61776.25;5031566;28;19926;-74
2023/06/10 06:42:56;;;;;;;;;;;;;;;-141.59;100.00;61776.25;5026170;28;19925;-74
2023/06/10 06:45:34;;;;;;;;;;;;;;;-141.59;100.00;61776.25;5028351;28;19925;-73
2023/06/10 06:48:01;;;;;;;;;;;;;;;-141.59;100.00;61776.25;5027347;28;19925;-73
2023/06/10 06:50:27;;;;;;;;;;;;;;;-141.59;100.00;61776.25;5026472;28;19925;-75
2023/06/10 06:52:55;;;;;;;;;;;;;;;-141.59;100.00;61776.25;5029290;28;20011;-74
2023/06/10 06:55:21;;;;;;;;;;;;;;;-141.59;100.00;61776.25;5024731;28;19952;-74
2023/06/10 06:57:50;;;;;;;;;;;;;;;-141.59;100.00;61776.25;5018679;28;20012;-73
2023/06/10 07:00:17;;;;;;;;;;;;;;;-141.59;100.00;61776.25;5027676;28;19932;-73
2023/06/10 07:02:44;;;;;;;;;;;;;;;-141.59;100.00;61776.25;5019092;28;19969;-73
2023/06/10 07:05:11;;;;;;;;;;;;;;;-141.59;100.00;61776.25;5017647;28;19931;-74
2023/06/10 07:07:38;;;;;;;;;;;;;;;-141.59;100.00;61776.25;5025070;28;19987;-73
2023/06/10 07:10:06;;;;;;;;;;;;;;;-141.59;100.00;61776.25;5029612;28;19936;-73
2023/06/10 07:12:34;;;;;;;;;;;;;;;-141.59;100.00;61776.25;5022451;28;20226;-73
2023/06/10 07:15:03;;;;;;;;;;;;;;;-141.59;100.00;61776.25;5024236;28;19925;-73
2023/06/10 07:17:29;;;;;;;;;;;;;;;-141.59;100.00;61776.25;5034547;28;19957;-73
2023/06/10 07:19:57;;;;;;;;;;;;;;;-141.59;100.00;61776.25;5020176;28;19937;-73
2023/06/10 07:22:24;;;;;;;;;;;;;;;-141.59;100.00;61776.25;5025353;28;19933;-73
2023/06/10 07:24:51;;;;;;;;;;;;;;;-141.59;100.00;61776.25;5043511;28;20023;-73
2023/06/10 07:27:18;;;;;;;;;;;;;;;-141.59;100.00;61776.25;5039586;28;20016;-74
2023/06/10 07:29:45;;;;;;;;;;;;;;;-141.59;100.00;61776.25;5025292;28;19926;-74
2023/06/10 07:32:13;;;;;;;;;;;;;;;-141.59;100.00;61776.25;5019581;28;19987;-73
2023/06/10 07:34:40;;;;;;;;;;;;;;;-141.59;100.00;61776.25;5025933;28;19925;-74
2023/06/10 07:37:08;;;;;;;;;;;;;;;-141.59;100.00;61776.25;5046293;28;19965;-73
2023/06/10 07:39:35;;;;;;;;;;;;;;;-141.59;100.00;61776.25;5030142;28;19975;-74
2023/06/10 07:42:02;;;;;;;;;;;;;;;-141.59;100.00;61776.25;5029084;28;19960;-73
2023/06/10 07:44:29;;;;;;;;;;;;;;;-141.59;100.00;61776.25;5030152;28;19956;-73
2023/06/10 07:46:57;;;;;;;;;;;;;;;-141.59;100.00;61776.25;5010615;28;19944;-74
2023/06/10 07:49:25;;;;;;;;;;;;;;;-141.59;100.00;61776.25;5023765;28;19986;-75
2023/06/10 07:51:55;;;;;;;;;;;;;;;-141.59;100.00;61776.25;5023059;28;19929;-74
2023/06/10 07:54:21;;;;;;;;;;;;;;;-141.59;100.00;61776.25;5025830;28;19925;-74
2023/06/10 07:56:48;;;;;;;;;;;;;;;-141.59;100.00;61776.25;5026881;28;19925;-74
2023/06/10 07:59:15;;;;;;;;;;;;;;;-141.59;100.00;61776.25;5026397;28;19979;-74
2023/06/10 08:01:42;;;;;;;;;;;;;;;-141.59;100.00;61776.25;5028226;28;19929;-75
2023/06/10 08:04:10;;;;;;;;;;;;;;;-141.59;100.00;61776.25;5039221;28;19925;-74
2023/06/10 08:06:39;;;;;;;;;;;;;;;-141.59;100.00;61776.25;5020208;28;19958;-73
2023/06/10 08:09:06;;;;;;;;;;;;;;;-141.59;100.00;61776.25;5030198;28;19932;-75
2023/06/10 08:11:33;;;;;;;;;;;;;;;-141.59;100.00;61776.25;5043965;28;19925;-73
2023/06/10 08:14:01;;;;;;;;;;;;;;;-141.59;100.00;61776.25;5043675;28;19951;-74
2023/06/10 08:16:27;;;;;;;;;;;;;;;-141.59;100.00;61776.25;5036684;28;19960;-76
2023/06/10 08:18:54;;;;;;;;;;;;;;;-141.59;100.00;61776.25;5042385;28;20313;-73
2023/06/10 08:21:21;;;;;;;;;;;;;;;-141.59;100.00;61776.25;5030874;28;19925;-73
2023/06/10 08:23:53;;;;;;;;;;;;;;;-141.59;100.00;61776.25;5023644;28;19929;-73
2023/06/10 08:26:20;;;;;;;;;;;;;;;-141.59;100.00;61776.25;5040779;28;19924;-75
2023/06/10 08:28:47;;;;;;;;;;;;;;;-141.59;100.00;61776.25;5024638;28;19933;-74
2023/06/10 08:31:14;;;;;;;;;;;;;;;-141.59;100.00;61776.25;5031294;28;19931;-73
2023/06/10 08:33:42;;;;;;;;;;;;;;;-141.59;100.00;61776.25;5042209;28;19925;-74
2023/06/10 08:36:09;;;;;;;;;;;;;;;-141.59;100.00;61776.25;5030999;28;19924;-73
2023/06/10 08:38:35;;;;;;;;;;;;;;;-141.59;100.00;61776.25;5026052;28;19951;-74
2023/06/10 08:41:05;;;;;;;;;;;;;;;-141.59;100.00;61776.25;5027572;28;19999;-74
2023/06/10 08:43:34;;;;;;;;;;;;;;;-141.59;100.00;61776.25;5037819;28;19956;-75
2023/06/10 08:46:01;;;;;;;;;;;;;;;-141.59;100.00;61776.25;5024940;28;19936;-75
2023/06/10 08:48:30;;;;;;;;;;;;;;;-141.59;100.00;61776.25;5024062;28;19925;-75
2023/06/10 08:50:58;;;;;;;;;;;;;;;-141.59;100.00;61776.25;5016001;28;19933;-78
2023/06/10 08:53:25;;;;;;;;;;;;;;;-141.59;100.00;61776.25;5017851;28;19925;-76
2023/06/10 08:55:52;;;;;;;;;;;;;;;-141.59;100.00;61776.25;5033624;28;19933;-76
2023/06/10 08:58:21;;;;;;;;;;;;;;;-141.59;100.00;61776.25;5029523;28;19924;-75
2023/06/10 09:00:47;;;;;;;;;;;;;;;-141.59;100.00;61776.25;5035143;28;20023;-78
2023/06/10 09:03:15;;;;;;;;;;;;;;;-141.59;100.00;61776.25;5013977;28;19925;-75
2023/06/10 09:05:42;;;;;;;;;;;;;;;-141.59;100.00;61776.25;5019052;28;19932;-75
2023/06/10 09:08:09;;;;;;;;;;;;;;;-141.59;100.00;61776.25;5043996;28;19932;-75
2023/06/10 09:10:37;;;;;;;;;;;;;;;-141.59;100.00;61776.25;5026152;28;19936;-75
2023/06/10 09:13:03;;;;;;;;;;;;;;;-141.59;100.00;61776.25;5039485;28;19978;-75
2023/06/10 09:15:31;;;;;;;;;;;;;;;-141.59;100.00;61776.25;5031007;28;19929;-76
2023/06/10 09:17:59;;;;;;;;;;;;;;;-141.59;100.00;61776.25;5045082;28;19996;-76
2023/06/10 09:20:26;;;;;;;;;;;;;;;-141.59;100.00;61776.25;5026022;28;20024;-76
2023/06/10 09:22:53;;;;;;;;;;;;;;;-141.59;100.00;61776.25;5036619;28;19932;-76
2023/06/10 09:25:20;;;;;;;;;;;;;;;-141.59;100.00;61776.25;5027708;28;19925;-75
2023/06/10 09:27:50;;;;;;;;;;;;;;;-141.59;100.00;61776.25;5029674;28;19925;-76
2023/06/10 09:30:27;;;;;;;;;;;;;;;-141.59;100.00;61776.25;5037197;28;19925;-76
2023/06/10 09:32:56;;;;;;;;;;;;;;;-141.59;100.00;61776.25;5039480;28;19925;-76
2023/06/10 09:35:23;;;;;;;;;;;;;;;-141.59;100.00;61776.25;5041500;28;19925;-76
2023/06/10 09:37:51;;;;;;;;;;;;;;;-141.59;100.00;61776.25;5022431;28;19925;-76
2023/06/10 09:40:17;;;;;;;;;;;;;;;-141.59;100.00;61776.25;5016187;28;19944;-76
2023/06/10 09:42:44;;;;;;;;;;;;;;;-141.59;100.00;61776.25;5015922;28;20016;-75
2023/06/10 09:45:11;;;;;;;;;;;;;;;-141.59;100.00;61776.25;5029021;28;19924;-76
2023/06/10 09:47:38;;;;;;;;;;;;;;;-141.59;100.00;61776.25;5027589;28;19932;-75
2023/06/10 09:50:06;;;;;;;;;;;;;;;-141.59;100.00;61776.25;5048706;28;19937;-76
2023/06/10 09:52:33;;;;;;;;;;;;;;;-141.59;100.00;61776.25;5043940;28;19924;-76
2023/06/10 09:55:00;;;;;;;;;;;;;;;-141.59;100.00;61776.25;5026309;28;19925;-76
2023/06/10 09:57:32;;;;;;;;;;;;;;;-141.59;100.00;61776.25;5013897;28;19925;-76
2023/06/10 09:59:59;;;;;;;;;;;;;;;-141.59;100.00;61776.25;5042700;28;19924;-77
2023/06/10 10:02:25;;;;;;;;;;;;;;;-141.59;100.00;61776.25;5027416;28;19925;-76
2023/06/10 10:04:52;;;;;;;;;;;;;;;-141.59;100.00;61776.25;5048085;28;19925;-76
2023/06/10 10:07:20;;;;;;;;;;;;;;;-141.59;100.00;61776.25;5049463;28;19925;-77
2023/06/10 10:09:47;;;;;;;;;;;;;;;-141.59;100.00;61776.25;5025365;28;19928;-76
2023/06/10 10:12:16;;;;;;;;;;;;;;;-141.59;100.00;61776.25;5022037;28;19933;-77
2023/06/10 10:14:46;;;;;;;;;;;;;;;-141.59;100.00;61776.25;5025092;28;19928;-78
2023/06/10 10:17:15;;;;;;;;;;;;;;;-141.59;100.00;61776.25;5043601;28;19947;-78
2023/06/10 10:19:47;;;;;;;;;;;;;;;-141.59;100.00;61776.25;5046605;28;19925;-76
2023/06/10 10:22:16;;;;;;;;;;;;;;;-141.59;100.00;61776.25;5031609;28;19925;-77
2023/06/10 10:24:47;;;;;;;;;;;;;;;-141.59;100.00;61776.25;5025501;28;19925;-76
2023/06/10 10:27:18;;;;;;;;;;;;;;;-141.59;100.00;61776.25;5024609;28;19967;-76
2023/06/10 10:29:47;;;;;;;;;;;;;;;-141.59;100.00;61776.25;5032408;28;19960;-76
2023/06/10 10:32:15;;;;;;;;;;;;;;;-141.59;100.00;61776.25;5026164;28;19939;-76
2023/06/10 10:34:46;;;;;;;;;;;;;;;-141.59;100.00;61776.25;5045273;28;19925;-76
2023/06/10 10:37:12;;;;;;;;;;;;;;;-141.59;100.00;61776.25;5024237;28;19940;-77
2023/06/10 10:39:39;;;;;;;;;;;;;;;-141.59;100.00;61776.25;5028087;28;19924;-77
2023/06/10 10:42:09;;;;;;;;;;;;;;;-141.59;100.00;61776.25;5052142;28;19929;-77
2023/06/10 10:44:36;;;;;;;;;;;;;;;-141.59;100.00;61776.25;5029410;28;20184;-77
2023/06/10 10:47:05;;;;;;;;;;;;;;;-141.59;100.00;61776.25;5023426;28;19951;-75
2023/06/10 10:49:33;;;;;;;;;;;;;;;-141.59;100.00;61776.25;5028822;28;20019;-76
2023/06/10 10:52:01;;;;;;;;;;;;;;;-141.59;100.00;61776.25;5042533;28;19924;-77
2023/06/10 10:54:31;;;;;;;;;;;;;;;-141.59;100.00;61776.25;5029309;28;19925;-76
2023/06/10 10:57:12;;;;;;;;;;;;;;;-141.59;100.00;61776.25;5026911;28;19925;-77
2023/06/10 11:00:01;;;;;;;;;;;;;;;-141.59;100.00;61776.25;5028508;28;19931;-76
2023/06/10 11:02:38;;;;;;;;;;;;;;;-141.59;100.00;61776.25;5018853;28;19932;-77
2023/06/10 11:05:06;;;;;;;;;;;;;;;-141.59;100.00;61776.25;5028839;28;19936;-78
2023/06/10 11:07:33;;;;;;;;;;;;;;;-141.59;100.00;61776.25;5035329;28;19931;-77
2023/06/10 11:10:00;;;;;;;;;;;;;;;-141.59;100.00;61776.25;5020009;28;19925;-77
2023/06/10 11:12:40;;;;;;;;;;;;;;;-141.59;100.00;61776.25;5039220;28;20031;-76
2023/06/10 11:15:07;;;;;;;;;;;;;;;-141.59;100.00;61776.25;5019428;28;19962;-77
2023/06/10 11:17:34;;;;;;;;;;;;;;;-141.59;100.00;61776.25;5048037;28;19940;-77
2023/06/10 11:20:01;;;;;;;;;;;;;;;-141.59;100.00;61776.25;5034040;28;19925;-77
2023/06/10 11:22:28;;;;;;;;;;;;;;;-141.59;100.00;61776.25;5033567;28;20042;-78
2023/06/10 11:24:58;;;;;;;;;;;;;;;-141.59;100.00;61776.25;5045862;28;19959;-78
2023/06/10 11:27:26;;;;;;;;;;;;;;;-141.59;100.00;61776.25;5026953;28;20016;-76
2023/06/10 11:30:19;;;;;;;;;;;;;;;-141.59;100.00;61776.25;5034278;28;19984;-77
2023/06/10 11:32:46;;;;;;;;;;;;;;;-141.59;100.00;61776.25;5048310;28;20063;-78
2023/06/10 11:35:12;;;;;;;;;;;;;;;-141.59;100.00;61776.25;5050675;28;19925;-79
2023/06/10 11:37:39;;;;;;;;;;;;;;;-141.59;100.00;61776.25;5041929;28;19925;-78
2023/06/10 11:40:07;;;;;;;;;;;;;;;-141.59;100.00;61776.25;5041929;28;19936;-77
2023/06/10 11:42:34;;;;;;;;;;;;;;;-141.59;100.00;61776.25;5023168;28;19960;-76
2023/06/10 11:45:02;;;;;;;;;;;;;;;-141.59;100.00;61776.25;5038838;28;19925;-77
2023/06/10 11:47:29;;;;;;;;;;;;;;;-141.59;100.00;61776.25;5025146;28;19932;-77
2023/06/10 11:49:59;;;;;;;;;;;;;;;-141.59;100.00;61776.25;5031186;28;19925;-77
2023/06/10 11:52:27;;;;;;;;;;;;;;;-141.59;100.00;61776.25;5041431;28;19925;-76
2023/06/10 11:54:54;;;;;;;;;;;;;;;-141.59;100.00;61776.25;5034195;28;19929;-77
2023/06/10 11:57:21;;;;;;;;;;;;;;;-141.59;100.00;61776.25;5031579;28;19952;-77
2023/06/10 11:59:49;;;;;;;;;;;;;;;-141.59;100.00;61776.25;5027195;28;19925;-77
2023/06/10 12:02:18;;;;;;;;;;;;;;;-141.59;100.00;61776.25;5042416;28;19932;-77
2023/06/10 12:04:45;;;;;;;;;;;;;;;-141.59;100.00;61776.25;5034231;28;19932;-78
2023/06/10 12:07:18;;;;;;;;;;;;;;;-141.59;100.00;61776.25;5050330;28;19925;-77
2023/06/10 12:09:45;;;;;;;;;;;;;;;-141.59;100.00;61776.25;5026844;28;19925;-78
2023/06/10 12:12:12;;;;;;;;;;;;;;;-141.59;100.00;61776.25;5030454;28;19931;-77
2023/06/10 12:14:54;;;;;;;;;;;;;;;-141.59;100.00;61776.25;5029012;28;19925;-77
2023/06/10 12:17:23;;;;;;;;;;;;;;;-141.59;100.00;61776.25;5027554;28;19933;-78
2023/06/10 12:19:50;;;;;;;;;;;;;;;-141.59;100.00;61776.25;5050133;28;19932;-79
2023/06/10 12:22:19;;;;;;;;;;;;;;;-141.59;100.00;61776.25;5026405;28;19929;-76